sensor_id;sensor_type;location;lat;lon;timestamp;pressure;altitude;pressure_sealevel;temperature;humidity
48624;BME280;34422;45.802;16.114;2023-02-21T00:02:00;100570.38;;;8.42;100.00
48624;BME280;34422;45.802;16.114;2023-02-21T00:04:46;100567.69;;;8.42;100.00
48624;BME280;34422;45.802;16.114;2023-02-21T00:07:32;100573.19;;;8.34;100.00
48624;BME280;34422;45.802;16.114;2023-02-21T00:10:17;100572.91;;;8.29;100.00
48624;BME280;34422;45.802;16.114;2023-02-21T00:13:02;100564.06;;;8.20;100.00
48624;BME280;34422;45.802;16.114;2023-02-21T00:15:48;100558.25;;;8.16;100.00
48624;BME280;34422;45.802;16.114;2023-02-21T00:18:34;100564.84;;;8.14;100.00
48624;BME280;34422;45.802;16.114;2023-02-21T00:21:21;100558.63;;;8.13;100.00
48624;BME280;34422;45.802;16.114;2023-02-21T00:24:12;100561.97;;;8.15;100.00
48624;BME280;34422;45.802;16.114;2023-02-21T00:26:57;100559.53;;;8.20;100.00
48624;BME280;34422;45.802;16.114;2023-02-21T00:29:43;100565.19;;;8.26;100.00
48624;BME280;34422;45.802;16.114;2023-02-21T00:32:28;100562.13;;;8.29;100.00
48624;BME280;34422;45.802;16.114;2023-02-21T00:35:13;100551.25;;;8.22;100.00
48624;BME280;34422;45.802;16.114;2023-02-21T00:37:59;100551.25;;;8.22;100.00
48624;BME280;34422;45.802;16.114;2023-02-21T00:40:44;100557.94;;;8.26;100.00
48624;BME280;34422;45.802;16.114;2023-02-21T00:43:31;100561.00;;;8.38;100.00
48624;BME280;34422;45.802;16.114;2023-02-21T00:46:17;100558.19;;;8.46;100.00
48624;BME280;34422;45.802;16.114;2023-02-21T00:49:03;100551.13;;;8.45;100.00
48624;BME280;34422;45.802;16.114;2023-02-21T00:51:49;100551.50;;;8.42;100.00
48624;BME280;34422;45.802;16.114;2023-02-21T00:54:35;100554.84;;;8.44;100.00
48624;BME280;34422;45.802;16.114;2023-02-21T00:57:21;100550.22;;;8.38;100.00
48624;BME280;34422;45.802;16.114;2023-02-21T01:00:08;100548.53;;;8.37;100.00
48624;BME280;34422;45.802;16.114;2023-02-21T01:02:54;100543.16;;;8.37;100.00
48624;BME280;34422;45.802;16.114;2023-02-21T01:05:39;100547.69;;;8.36;100.00
48624;BME280;34422;45.802;16.114;2023-02-21T01:08:24;100545.59;;;8.32;100.00
48624;BME280;34422;45.802;16.114;2023-02-21T01:11:14;100537.50;;;8.32;100.00
48624;BME280;34422;45.802;16.114;2023-02-21T01:14:00;100538.69;;;8.29;100.00
48624;BME280;34422;45.802;16.114;2023-02-21T01:16:45;100540.03;;;8.18;100.00
48624;BME280;34422;45.802;16.114;2023-02-21T01:19:30;100533.34;;;8.14;100.00
48624;BME280;34422;45.802;16.114;2023-02-21T01:22:16;100545.53;;;8.10;100.00
48624;BME280;34422;45.802;16.114;2023-02-21T01:25:01;100545.28;;;8.05;100.00
48624;BME280;34422;45.802;16.114;2023-02-21T01:27:47;100546.03;;;7.99;100.00
48624;BME280;34422;45.802;16.114;2023-02-21T01:30:32;100551.13;;;7.94;100.00
48624;BME280;34422;45.802;16.114;2023-02-21T01:33:17;100540.53;;;7.93;100.00
48624;BME280;34422;45.802;16.114;2023-02-21T01:36:04;100536.22;;;7.77;100.00
48624;BME280;34422;45.802;16.114;2023-02-21T01:38:50;100533.78;;;7.82;100.00
48624;BME280;34422;45.802;16.114;2023-02-21T01:41:35;100546.22;;;7.83;100.00
48624;BME280;34422;45.802;16.114;2023-02-21T01:47:15;100536.38;;;7.90;100.00
48624;BME280;34422;45.802;16.114;2023-02-21T01:50:04;100529.97;;;7.91;100.00
48624;BME280;34422;45.802;16.114;2023-02-21T01:52:51;100529.09;;;8.05;100.00
48624;BME280;34422;45.802;16.114;2023-02-21T01:55:38;100518.19;;;8.13;100.00
48624;BME280;34422;45.802;16.114;2023-02-21T01:58:25;100516.34;;;8.14;100.00
48624;BME280;34422;45.802;16.114;2023-02-21T02:01:18;100521.03;;;8.05;100.00
48624;BME280;34422;45.802;16.114;2023-02-21T02:04:05;100520.56;;;8.02;100.00
48624;BME280;34422;45.802;16.114;2023-02-21T02:06:50;100517.53;;;7.90;100.00
48624;BME280;34422;45.802;16.114;2023-02-21T02:09:36;100511.47;;;7.88;100.00
48624;BME280;34422;45.802;16.114;2023-02-21T02:18:21;100508.81;;;7.73;100.00
48624;BME280;34422;45.802;16.114;2023-02-21T02:24:04;100504.09;;;7.61;100.00
48624;BME280;34422;45.802;16.114;2023-02-21T02:38:09;100495.91;;;7.69;100.00
48624;BME280;34422;45.802;16.114;2023-02-21T02:40:58;100491.72;;;7.66;100.00
48624;BME280;34422;45.802;16.114;2023-02-21T02:43:29;100481.53;;;7.62;100.00
48624;BME280;34422;45.802;16.114;2023-02-21T02:48:36;100493.63;;;7.51;100.00
48624;BME280;34422;45.802;16.114;2023-02-21T02:51:10;100492.50;;;7.45;100.00
48624;BME280;34422;45.802;16.114;2023-02-21T02:53:38;100485.81;;;7.41;100.00
48624;BME280;34422;45.802;16.114;2023-02-21T02:56:07;100484.44;;;7.31;100.00
48624;BME280;34422;45.802;16.114;2023-02-21T02:58:41;100478.97;;;7.24;100.00
48624;BME280;34422;45.802;16.114;2023-02-21T03:04:11;100483.69;;;7.22;100.00
48624;BME280;34422;45.802;16.114;2023-02-21T03:09:55;100479.34;;;7.21;100.00
48624;BME280;34422;45.802;16.114;2023-02-21T03:15:25;100473.66;;;7.16;100.00
48624;BME280;34422;45.802;16.114;2023-02-21T03:17:59;100466.97;;;7.12;100.00
48624;BME280;34422;45.802;16.114;2023-02-21T03:20:28;100469.97;;;7.17;100.00
48624;BME280;34422;45.802;16.114;2023-02-21T03:22:59;100465.78;;;7.14;100.00
48624;BME280;34422;45.802;16.114;2023-02-21T03:25:28;100465.59;;;7.16;100.00
48624;BME280;34422;45.802;16.114;2023-02-21T03:27:58;100466.34;;;7.10;100.00
48624;BME280;34422;45.802;16.114;2023-02-21T03:30:27;100464.28;;;7.12;100.00
48624;BME280;34422;45.802;16.114;2023-02-21T03:32:55;100461.41;;;7.13;100.00
48624;BME280;34422;45.802;16.114;2023-02-21T03:35:22;100469.03;;;7.10;100.00
48624;BME280;34422;45.802;16.114;2023-02-21T03:37:51;100456.97;;;7.06;100.00
48624;BME280;34422;45.802;16.114;2023-02-21T03:40:22;100460.31;;;7.08;100.00
48624;BME280;34422;45.802;16.114;2023-02-21T03:42:51;100461.88;;;7.02;100.00
48624;BME280;34422;45.802;16.114;2023-02-21T03:45:18;100460.13;;;6.95;100.00
48624;BME280;34422;45.802;16.114;2023-02-21T03:47:45;100452.78;;;6.89;100.00
48624;BME280;34422;45.802;16.114;2023-02-21T03:50:12;100463.81;;;6.94;100.00
48624;BME280;34422;45.802;16.114;2023-02-21T03:52:39;100449.25;;;6.88;100.00
48624;BME280;34422;45.802;16.114;2023-02-21T03:55:07;100450.44;;;6.86;100.00
48624;BME280;34422;45.802;16.114;2023-02-21T03:57:34;100453.72;;;6.81;100.00
48624;BME280;34422;45.802;16.114;2023-02-21T04:00:01;100446.66;;;6.80;100.00
48624;BME280;34422;45.802;16.114;2023-02-21T04:02:28;100449.16;;;6.82;100.00
48624;BME280;34422;45.802;16.114;2023-02-21T04:04:54;100446.75;;;6.87;100.00
48624;BME280;34422;45.802;16.114;2023-02-21T04:07:21;100445.63;;;6.81;100.00
48624;BME280;34422;45.802;16.114;2023-02-21T04:09:48;100445.81;;;6.80;100.00
48624;BME280;34422;45.802;16.114;2023-02-21T04:12:15;100443.50;;;6.76;100.00
48624;BME280;34422;45.802;16.114;2023-02-21T04:14:42;100447.50;;;6.81;100.00
48624;BME280;34422;45.802;16.114;2023-02-21T04:17:10;100450.84;;;6.83;100.00
48624;BME280;34422;45.802;16.114;2023-02-21T04:19:37;100449.88;;;6.75;100.00
48624;BME280;34422;45.802;16.114;2023-02-21T04:22:04;100455.25;;;6.75;100.00
48624;BME280;34422;45.802;16.114;2023-02-21T04:24:31;100449.53;;;6.78;100.00
48624;BME280;34422;45.802;16.114;2023-02-21T04:26:57;100455.81;;;6.86;100.00
48624;BME280;34422;45.802;16.114;2023-02-21T04:29:24;100453.53;;;6.83;100.00
48624;BME280;34422;45.802;16.114;2023-02-21T04:31:51;100453.13;;;6.86;100.00
48624;BME280;34422;45.802;16.114;2023-02-21T04:34:18;100452.97;;;6.87;100.00
48624;BME280;34422;45.802;16.114;2023-02-21T04:36:45;100456.31;;;6.89;100.00
48624;BME280;34422;45.802;16.114;2023-02-21T04:39:12;100454.09;;;6.93;100.00
48624;BME280;34422;45.802;16.114;2023-02-21T04:41:40;100450.63;;;6.99;100.00
48624;BME280;34422;45.802;16.114;2023-02-21T04:44:06;100446.50;;;6.96;100.00
48624;BME280;34422;45.802;16.114;2023-02-21T04:46:33;100439.69;;;7.00;100.00
48624;BME280;34422;45.802;16.114;2023-02-21T04:49:00;100437.84;;;7.16;100.00
48624;BME280;34422;45.802;16.114;2023-02-21T04:51:27;100439.88;;;7.28;100.00
48624;BME280;34422;45.802;16.114;2023-02-21T04:53:54;100438.09;;;7.50;100.00
48624;BME280;34422;45.802;16.114;2023-02-21T04:56:23;100430.75;;;7.59;100.00
48624;BME280;34422;45.802;16.114;2023-02-21T04:58:51;100429.59;;;7.68;100.00
48624;BME280;34422;45.802;16.114;2023-02-21T05:01:19;100428.75;;;7.67;100.00
48624;BME280;34422;45.802;16.114;2023-02-21T05:03:46;100437.03;;;7.66;100.00
48624;BME280;34422;45.802;16.114;2023-02-21T05:06:21;100433.44;;;7.59;100.00
48624;BME280;34422;45.802;16.114;2023-02-21T05:08:48;100437.25;;;7.49;100.00
48624;BME280;34422;45.802;16.114;2023-02-21T05:11:16;100438.38;;;7.40;100.00
48624;BME280;34422;45.802;16.114;2023-02-21T05:13:43;100432.09;;;7.33;100.00
48624;BME280;34422;45.802;16.114;2023-02-21T05:16:10;100440.06;;;7.27;100.00
48624;BME280;34422;45.802;16.114;2023-02-21T05:18:37;100443.59;;;7.27;100.00
48624;BME280;34422;45.802;16.114;2023-02-21T05:21:07;100442.69;;;7.20;100.00
48624;BME280;34422;45.802;16.114;2023-02-21T05:23:34;100438.38;;;7.11;100.00
48624;BME280;34422;45.802;16.114;2023-02-21T05:26:11;100435.50;;;6.98;100.00
48624;BME280;34422;45.802;16.114;2023-02-21T05:28:39;100433.59;;;6.92;100.00
48624;BME280;34422;45.802;16.114;2023-02-21T05:31:06;100433.38;;;6.78;100.00
48624;BME280;34422;45.802;16.114;2023-02-21T05:33:34;100429.56;;;6.73;100.00
48624;BME280;34422;45.802;16.114;2023-02-21T05:36:01;100432.16;;;6.66;100.00
48624;BME280;34422;45.802;16.114;2023-02-21T05:38:28;100436.22;;;6.62;100.00
48624;BME280;34422;45.802;16.114;2023-02-21T05:40:55;100437.59;;;6.58;100.00
48624;BME280;34422;45.802;16.114;2023-02-21T05:43:21;100428.09;;;6.56;100.00
48624;BME280;34422;45.802;16.114;2023-02-21T05:45:48;100432.97;;;6.52;100.00
48624;BME280;34422;45.802;16.114;2023-02-21T05:48:15;100428.44;;;6.53;100.00
48624;BME280;34422;45.802;16.114;2023-02-21T05:50:42;100427.25;;;6.55;100.00
48624;BME280;34422;45.802;16.114;2023-02-21T05:53:10;100422.22;;;6.52;100.00
48624;BME280;34422;45.802;16.114;2023-02-21T05:55:37;100424.72;;;6.54;100.00
48624;BME280;34422;45.802;16.114;2023-02-21T05:58:04;100434.00;;;6.51;100.00
48624;BME280;34422;45.802;16.114;2023-02-21T06:00:31;100431.56;;;6.56;100.00
48624;BME280;34422;45.802;16.114;2023-02-21T06:02:58;100443.66;;;6.60;100.00
48624;BME280;34422;45.802;16.114;2023-02-21T06:05:25;100433.84;;;6.67;100.00
48624;BME280;34422;45.802;16.114;2023-02-21T06:07:52;100435.88;;;6.65;100.00
48624;BME280;34422;45.802;16.114;2023-02-21T06:10:19;100438.56;;;6.65;100.00
48624;BME280;34422;45.802;16.114;2023-02-21T06:12:46;100439.13;;;6.75;100.00
48624;BME280;34422;45.802;16.114;2023-02-21T06:15:13;100447.09;;;6.84;100.00
48624;BME280;34422;45.802;16.114;2023-02-21T06:17:41;100453.44;;;6.91;100.00
48624;BME280;34422;45.802;16.114;2023-02-21T06:20:11;100458.16;;;7.03;100.00
48624;BME280;34422;45.802;16.114;2023-02-21T06:22:40;100447.78;;;7.15;100.00
48624;BME280;34422;45.802;16.114;2023-02-21T06:25:07;100442.84;;;7.19;100.00
48624;BME280;34422;45.802;16.114;2023-02-21T06:27:34;100442.69;;;7.20;100.00
48624;BME280;34422;45.802;16.114;2023-02-21T06:30:03;100449.38;;;7.24;100.00
48624;BME280;34422;45.802;16.114;2023-02-21T06:32:30;100442.03;;;7.33;100.00
48624;BME280;34422;45.802;16.114;2023-02-21T06:34:57;100453.63;;;7.33;100.00
48624;BME280;34422;45.802;16.114;2023-02-21T06:37:23;100453.69;;;7.40;100.00
48624;BME280;34422;45.802;16.114;2023-02-21T06:39:50;100450.28;;;7.31;100.00
48624;BME280;34422;45.802;16.114;2023-02-21T06:42:17;100452.22;;;7.37;100.00
48624;BME280;34422;45.802;16.114;2023-02-21T06:44:45;100456.19;;;7.41;100.00
48624;BME280;34422;45.802;16.114;2023-02-21T06:47:13;100463.78;;;7.53;100.00
48624;BME280;34422;45.802;16.114;2023-02-21T06:49:40;100467.91;;;7.48;100.00
48624;BME280;34422;45.802;16.114;2023-02-21T06:52:07;100473.66;;;7.45;100.00
48624;BME280;34422;45.802;16.114;2023-02-21T06:54:35;100479.94;;;7.53;100.00
48624;BME280;34422;45.802;16.114;2023-02-21T06:57:02;100475.22;;;7.40;100.00
48624;BME280;34422;45.802;16.114;2023-02-21T06:59:29;100481.72;;;7.60;100.00
48624;BME280;34422;45.802;16.114;2023-02-21T07:01:56;100475.66;;;7.73;100.00
48624;BME280;34422;45.802;16.114;2023-02-21T07:04:24;100478.00;;;7.97;100.00
48624;BME280;34422;45.802;16.114;2023-02-21T07:06:50;100477.31;;;8.10;100.00
48624;BME280;34422;45.802;16.114;2023-02-21T07:09:17;100476.66;;;8.44;100.00
48624;BME280;34422;45.802;16.114;2023-02-21T07:11:44;100467.19;;;8.54;100.00
48624;BME280;34422;45.802;16.114;2023-02-21T07:14:12;100476.88;;;8.49;100.00
48624;BME280;34422;45.802;16.114;2023-02-21T07:16:40;100467.66;;;8.58;100.00
48624;BME280;34422;45.802;16.114;2023-02-21T07:19:06;100469.28;;;8.80;100.00
48624;BME280;34422;45.802;16.114;2023-02-21T07:21:33;100473.72;;;8.95;100.00
48624;BME280;34422;45.802;16.114;2023-02-21T07:24:00;100475.88;;;8.78;100.00
48624;BME280;34422;45.802;16.114;2023-02-21T07:26:27;100474.28;;;8.83;100.00
48624;BME280;34422;45.802;16.114;2023-02-21T07:28:54;100478.03;;;8.89;100.00
48624;BME280;34422;45.802;16.114;2023-02-21T07:31:21;100461.28;;;9.28;100.00
48624;BME280;34422;45.802;16.114;2023-02-21T07:33:47;100459.91;;;9.45;100.00
48624;BME280;34422;45.802;16.114;2023-02-21T07:36:14;100468.31;;;9.63;100.00
48624;BME280;34422;45.802;16.114;2023-02-21T07:38:41;100465.72;;;10.03;100.00
48624;BME280;34422;45.802;16.114;2023-02-21T07:41:08;100464.59;;;10.39;100.00
48624;BME280;34422;45.802;16.114;2023-02-21T07:43:35;100465.84;;;10.76;100.00
48624;BME280;34422;45.802;16.114;2023-02-21T07:46:02;100466.44;;;10.97;100.00
48624;BME280;34422;45.802;16.114;2023-02-21T07:48:29;100467.47;;;11.10;100.00
48624;BME280;34422;45.802;16.114;2023-02-21T07:50:56;100466.63;;;11.16;100.00
48624;BME280;34422;45.802;16.114;2023-02-21T07:53:23;100468.59;;;11.53;100.00
48624;BME280;34422;45.802;16.114;2023-02-21T07:55:50;100457.81;;;11.40;100.00
48624;BME280;34422;45.802;16.114;2023-02-21T07:58:16;100466.56;;;11.42;100.00
48624;BME280;34422;45.802;16.114;2023-02-21T08:00:43;100462.81;;;11.94;100.00
48624;BME280;34422;45.802;16.114;2023-02-21T08:03:13;100456.69;;;12.43;100.00
48624;BME280;34422;45.802;16.114;2023-02-21T08:05:40;100467.59;;;13.11;99.66
48624;BME280;34422;45.802;16.114;2023-02-21T08:08:08;100463.59;;;12.89;100.00
48624;BME280;34422;45.802;16.114;2023-02-21T08:10:35;100456.09;;;13.34;95.71
48624;BME280;34422;45.802;16.114;2023-02-21T08:13:03;100448.81;;;13.46;94.22
48624;BME280;34422;45.802;16.114;2023-02-21T08:15:30;100453.75;;;14.04;89.83
48624;BME280;34422;45.802;16.114;2023-02-21T08:17:58;100446.81;;;13.90;90.24
48624;BME280;34422;45.802;16.114;2023-02-21T08:20:24;100460.16;;;13.80;89.54
48624;BME280;34422;45.802;16.114;2023-02-21T08:22:51;100445.19;;;14.01;86.81
48624;BME280;34422;45.802;16.114;2023-02-21T08:25:18;100463.59;;;13.69;88.90
48624;BME280;34422;45.802;16.114;2023-02-21T08:27:45;100466.59;;;13.97;88.84
48624;BME280;34422;45.802;16.114;2023-02-21T08:30:15;100467.97;;;13.88;89.37
48624;BME280;34422;45.802;16.114;2023-02-21T08:32:42;100471.38;;;14.97;82.26
48624;BME280;34422;45.802;16.114;2023-02-21T08:35:13;100460.56;;;14.67;82.77
48624;BME280;34422;45.802;16.114;2023-02-21T08:37:45;100463.41;;;14.72;80.73
48624;BME280;34422;45.802;16.114;2023-02-21T08:40:13;100467.56;;;15.44;73.73
48624;BME280;34422;45.802;16.114;2023-02-21T08:42:40;100466.75;;;14.74;76.61
48624;BME280;34422;45.802;16.114;2023-02-21T08:45:14;100456.25;;;13.87;81.19
48624;BME280;34422;45.802;16.114;2023-02-21T08:47:41;100460.81;;;13.57;83.19
48624;BME280;34422;45.802;16.114;2023-02-21T08:50:08;100460.25;;;13.37;82.36
48624;BME280;34422;45.802;16.114;2023-02-21T08:52:35;100463.69;;;13.26;83.83
48624;BME280;34422;45.802;16.114;2023-02-21T08:55:02;100461.72;;;13.14;85.26
48624;BME280;34422;45.802;16.114;2023-02-21T08:57:29;100476.41;;;13.50;82.84
48624;BME280;34422;45.802;16.114;2023-02-21T08:59:55;100469.22;;;14.75;74.97
48624;BME280;34422;45.802;16.114;2023-02-21T09:02:23;100480.00;;;15.05;71.38
48624;BME280;34422;45.802;16.114;2023-02-21T09:04:51;100473.00;;;15.33;70.56
48624;BME280;34422;45.802;16.114;2023-02-21T09:07:19;100480.22;;;15.50;68.75
48624;BME280;34422;45.802;16.114;2023-02-21T09:09:47;100480.25;;;15.39;69.00
48624;BME280;34422;45.802;16.114;2023-02-21T09:12:14;100481.41;;;15.54;67.39
48624;BME280;34422;45.802;16.114;2023-02-21T09:14:41;100476.94;;;15.02;71.02
48624;BME280;34422;45.802;16.114;2023-02-21T09:17:11;100485.22;;;14.72;71.41
48624;BME280;34422;45.802;16.114;2023-02-21T09:19:38;100484.59;;;14.70;73.10
48624;BME280;34422;45.802;16.114;2023-02-21T09:22:08;100482.09;;;14.56;72.80
48624;BME280;34422;45.802;16.114;2023-02-21T09:24:35;100482.56;;;14.53;72.45
48624;BME280;34422;45.802;16.114;2023-02-21T09:27:04;100480.53;;;14.49;73.71
48624;BME280;34422;45.802;16.114;2023-02-21T09:29:32;100483.53;;;14.71;74.90
48624;BME280;34422;45.802;16.114;2023-02-21T09:32:00;100467.13;;;14.89;71.72
48624;BME280;34422;45.802;16.114;2023-02-21T09:34:29;100479.19;;;14.93;71.57
48624;BME280;34422;45.802;16.114;2023-02-21T09:36:56;100470.78;;;15.06;70.33
48624;BME280;34422;45.802;16.114;2023-02-21T09:39:22;100489.00;;;14.94;70.53
48624;BME280;34422;45.802;16.114;2023-02-21T09:41:50;100484.16;;;15.19;69.49
48624;BME280;34422;45.802;16.114;2023-02-21T09:44:22;100482.59;;;15.47;69.37
48624;BME280;34422;45.802;16.114;2023-02-21T09:46:54;100475.38;;;15.64;68.81
48624;BME280;34422;45.802;16.114;2023-02-21T09:49:27;100492.13;;;15.56;63.90
48624;BME280;34422;45.802;16.114;2023-02-21T09:51:56;100476.31;;;15.70;65.34
48624;BME280;34422;45.802;16.114;2023-02-21T09:54:37;100482.22;;;15.78;64.32
48624;BME280;34422;45.802;16.114;2023-02-21T09:57:11;100478.81;;;15.71;65.03
48624;BME280;34422;45.802;16.114;2023-02-21T09:59:38;100481.28;;;15.61;65.42
48624;BME280;34422;45.802;16.114;2023-02-21T10:07:25;100486.16;;;15.59;64.26
48624;BME280;34422;45.802;16.114;2023-02-21T10:17:41;100482.59;;;15.58;64.90
48624;BME280;34422;45.802;16.114;2023-02-21T10:20:24;100470.34;;;15.73;65.59
48624;BME280;34422;45.802;16.114;2023-02-21T10:22:52;100467.34;;;15.97;64.49
48624;BME280;34422;45.802;16.114;2023-02-21T10:25:26;100470.78;;;15.93;63.28
48624;BME280;34422;45.802;16.114;2023-02-21T10:27:56;100467.75;;;15.78;63.86
48624;BME280;34422;45.802;16.114;2023-02-21T10:30:32;100455.53;;;15.80;64.55
48624;BME280;34422;45.802;16.114;2023-02-21T10:33:02;100461.06;;;15.85;63.45
48624;BME280;34422;45.802;16.114;2023-02-21T10:35:34;100470.22;;;15.79;63.36
48624;BME280;34422;45.802;16.114;2023-02-21T10:38:13;100471.69;;;15.70;63.64
48624;BME280;34422;45.802;16.114;2023-02-21T10:46:04;100441.47;;;16.17;62.63
48624;BME280;34422;45.802;16.114;2023-02-21T10:48:35;100445.78;;;15.84;62.43
48624;BME280;34422;45.802;16.114;2023-02-21T10:51:14;100444.50;;;16.04;64.86
48624;BME280;34422;45.802;16.114;2023-02-21T10:53:44;100447.41;;;16.14;61.11
48624;BME280;34422;45.802;16.114;2023-02-21T10:58:56;100431.16;;;16.19;61.99
48624;BME280;34422;45.802;16.114;2023-02-21T11:03:55;100435.31;;;16.38;60.64
48624;BME280;34422;45.802;16.114;2023-02-21T11:08:56;100440.22;;;16.08;60.74
48624;BME280;34422;45.802;16.114;2023-02-21T11:11:36;100430.97;;;16.09;62.76
48624;BME280;34422;45.802;16.114;2023-02-21T11:16:43;100431.19;;;16.35;61.36
48624;BME280;34422;45.802;16.114;2023-02-21T11:19:15;100421.63;;;16.21;60.50
48624;BME280;34422;45.802;16.114;2023-02-21T11:21:42;100414.66;;;16.14;61.33
48624;BME280;34422;45.802;16.114;2023-02-21T11:24:11;100412.97;;;16.41;60.61
48624;BME280;34422;45.802;16.114;2023-02-21T11:26:50;100408.50;;;16.35;61.06
48624;BME280;34422;45.802;16.114;2023-02-21T11:29:19;100409.00;;;16.82;60.98
48624;BME280;34422;45.802;16.114;2023-02-21T11:31:48;100401.22;;;16.91;58.97
48624;BME280;34422;45.802;16.114;2023-02-21T11:34:15;100389.94;;;17.04;59.19
48624;BME280;34422;45.802;16.114;2023-02-21T11:36:46;100403.63;;;17.26;57.96
48624;BME280;34422;45.802;16.114;2023-02-21T11:39:22;100395.63;;;17.19;57.54
48624;BME280;34422;45.802;16.114;2023-02-21T11:41:54;100395.44;;;16.87;58.06
48624;BME280;34422;45.802;16.114;2023-02-21T11:44:23;100386.84;;;16.79;58.64
48624;BME280;34422;45.802;16.114;2023-02-21T11:46:57;100386.13;;;16.66;59.23
48624;BME280;34422;45.802;16.114;2023-02-21T11:52:39;100374.59;;;16.64;59.85
48624;BME280;34422;45.802;16.114;2023-02-21T11:55:14;100359.63;;;17.05;59.65
48624;BME280;34422;45.802;16.114;2023-02-21T11:57:51;100377.72;;;16.90;58.28
48624;BME280;34422;45.802;16.114;2023-02-21T12:00:39;100369.91;;;16.98;59.36
48624;BME280;34422;45.802;16.114;2023-02-21T12:08:55;100348.16;;;17.09;58.00
48624;BME280;34422;45.802;16.114;2023-02-21T12:17:41;100340.69;;;17.21;58.80
48624;BME280;34422;45.802;16.114;2023-02-21T12:20:23;100335.63;;;16.91;57.21
48624;BME280;34422;45.802;16.114;2023-02-21T12:26:01;100331.38;;;17.44;56.51
48624;BME280;34422;45.802;16.114;2023-02-21T12:34:27;100326.16;;;17.64;55.43
48624;BME280;34422;45.802;16.114;2023-02-21T12:37:13;100326.50;;;17.51;55.78
48624;BME280;34422;45.802;16.114;2023-02-21T12:48:09;100315.22;;;17.42;56.27
48624;BME280;34422;45.802;16.114;2023-02-21T12:50:43;100304.22;;;17.15;56.68
48624;BME280;34422;45.802;16.114;2023-02-21T12:53:28;100310.31;;;17.22;56.64
48624;BME280;34422;45.802;16.114;2023-02-21T12:56:08;100308.78;;;17.75;56.25
48624;BME280;34422;45.802;16.114;2023-02-21T12:58:42;100301.63;;;17.74;56.04
48624;BME280;34422;45.802;16.114;2023-02-21T13:01:17;100308.19;;;17.51;54.68
48624;BME280;34422;45.802;16.114;2023-02-21T13:03:56;100302.97;;;17.50;54.90
48624;BME280;34422;45.802;16.114;2023-02-21T13:06:31;100295.25;;;17.41;55.79
48624;BME280;34422;45.802;16.114;2023-02-21T13:11:38;100301.97;;;17.56;55.71
48624;BME280;34422;45.802;16.114;2023-02-21T13:14:12;100292.84;;;17.72;54.68
48624;BME280;34422;45.802;16.114;2023-02-21T13:16:41;100297.16;;;17.95;55.06
48624;BME280;34422;45.802;16.114;2023-02-21T13:19:11;100303.22;;;17.97;54.61
48624;BME280;34422;45.802;16.114;2023-02-21T13:24:32;100283.31;;;17.53;55.13
48624;BME280;34422;45.802;16.114;2023-02-21T13:27:28;100292.34;;;17.75;56.03
48624;BME280;34422;45.802;16.114;2023-02-21T13:30:02;100280.72;;;17.90;54.88
48624;BME280;34422;45.802;16.114;2023-02-21T13:32:37;100274.94;;;17.86;53.62
48624;BME280;34422;45.802;16.114;2023-02-21T13:35:07;100274.50;;;18.04;53.67
48624;BME280;34422;45.802;16.114;2023-02-21T13:37:44;100271.78;;;18.04;53.96
48624;BME280;34422;45.802;16.114;2023-02-21T13:40:24;100269.41;;;18.18;53.04
48624;BME280;34422;45.802;16.114;2023-02-21T13:43:01;100280.53;;;18.01;52.65
48624;BME280;34422;45.802;16.114;2023-02-21T13:45:29;100271.75;;;17.99;53.31
48624;BME280;34422;45.802;16.114;2023-02-21T13:53:21;100262.69;;;18.31;52.93
48624;BME280;34422;45.802;16.114;2023-02-21T14:03:55;100251.94;;;18.24;52.86
48624;BME280;34422;45.802;16.114;2023-02-21T14:06:31;100257.06;;;18.10;53.54
48624;BME280;34422;45.802;16.114;2023-02-21T14:09:10;100249.34;;;18.07;52.77
48624;BME280;34422;45.802;16.114;2023-02-21T14:11:44;100243.88;;;18.07;52.35
48624;BME280;34422;45.802;16.114;2023-02-21T14:14:27;100237.56;;;18.02;52.42
48624;BME280;34422;45.802;16.114;2023-02-21T14:17:03;100241.44;;;18.11;52.95
48624;BME280;34422;45.802;16.114;2023-02-21T14:22:11;100231.84;;;18.08;52.28
48624;BME280;34422;45.802;16.114;2023-02-21T14:24:45;100230.03;;;18.24;53.26
48624;BME280;34422;45.802;16.114;2023-02-21T14:29:41;100232.16;;;18.12;52.60
48624;BME280;34422;45.802;16.114;2023-02-21T14:50:37;100228.78;;;18.00;53.78
48624;BME280;34422;45.802;16.114;2023-02-21T15:01:39;100223.81;;;17.97;52.96
48624;BME280;34422;45.802;16.114;2023-02-21T15:07:22;100220.13;;;17.81;53.06
48624;BME280;34422;45.802;16.114;2023-02-21T15:10:04;100216.00;;;17.79;53.09
48624;BME280;34422;45.802;16.114;2023-02-21T15:12:35;100222.84;;;17.76;53.83
48624;BME280;34422;45.802;16.114;2023-02-21T15:15:10;100231.19;;;17.64;53.23
48624;BME280;34422;45.802;16.114;2023-02-21T15:17:39;100227.25;;;17.55;53.77
48624;BME280;34422;45.802;16.114;2023-02-21T15:20:14;100212.41;;;17.46;53.99
48624;BME280;34422;45.802;16.114;2023-02-21T15:22:41;100215.97;;;17.47;54.25
48624;BME280;34422;45.802;16.114;2023-02-21T15:35:28;100210.75;;;17.18;55.19
48624;BME280;34422;45.802;16.114;2023-02-21T15:37:59;100215.59;;;17.11;55.55
48624;BME280;34422;45.802;16.114;2023-02-21T15:40:28;100217.13;;;17.02;56.07
48624;BME280;34422;45.802;16.114;2023-02-21T15:42:55;100218.69;;;16.93;56.35
48624;BME280;34422;45.802;16.114;2023-02-21T15:45:32;100219.91;;;16.80;57.03
48624;BME280;34422;45.802;16.114;2023-02-21T15:48:00;100215.25;;;16.81;57.26